createdAt,value
2017-12-01T00:00:21.732Z,100080.47
2017-12-01T00:02:49.369Z,100079.58
2017-12-01T00:05:17.038Z,100086.49
2017-12-01T00:07:44.684Z,100086.55
2017-12-01T00:10:12.371Z,100088.55
2017-12-01T00:12:40.021Z,100097.77
2017-12-01T00:15:07.728Z,100104.30
2017-12-01T00:17:35.360Z,100106.45
2017-12-01T00:20:03.049Z,100102.94
2017-12-01T00:22:30.743Z,100104.66
2017-12-01T00:24:58.411Z,100106.66
2017-12-01T00:27:26.081Z,100105.75
2017-12-01T00:29:53.782Z,100103.85
2017-12-01T00:32:21.433Z,100111.56
2017-12-01T00:34:49.108Z,100106.84
2017-12-01T00:37:16.777Z,100115.81
2017-12-01T00:39:44.437Z,100116.22
2017-12-01T00:42:12.076Z,100114.44
2017-12-01T00:44:39.747Z,100115.44
2017-12-01T00:47:07.375Z,100124.95
2017-12-01T00:49:35.046Z,100126.34
2017-12-01T00:52:02.689Z,100125.70
2017-12-01T00:54:30.345Z,100129.81
2017-12-01T00:56:58.008Z,100130.66
2017-12-01T00:59:25.681Z,100135.00
2017-12-01T01:01:53.349Z,100140.38
2017-12-01T01:04:21.010Z,100139.52
2017-12-01T01:06:48.645Z,100148.85
2017-12-01T01:09:16.363Z,100147.47
2017-12-01T01:11:44.008Z,100152.41
2017-12-01T01:14:11.677Z,100154.73
2017-12-01T01:16:39.368Z,100159.21
2017-12-01T01:19:07.029Z,100158.98
2017-12-01T01:21:34.734Z,100161.92
2017-12-01T01:24:02.363Z,100163.20
2017-12-01T01:26:30.040Z,100165.30
2017-12-01T01:28:57.760Z,100175.38
2017-12-01T01:31:25.405Z,100179.69
2017-12-01T01:33:53.068Z,100174.67
2017-12-01T01:36:20.719Z,100182.91
2017-12-01T01:38:48.387Z,100183.31
2017-12-01T01:41:16.083Z,100186.89
2017-12-01T01:43:43.729Z,100189.09
2017-12-01T01:46:11.420Z,100188.14
2017-12-01T01:48:40.016Z,100192.83
2017-12-01T01:51:07.635Z,100192.55
2017-12-01T01:53:35.401Z,100192.59
2017-12-01T01:56:03.047Z,100193.42
2017-12-01T01:58:30.760Z,100200.20
2017-12-01T02:00:58.483Z,100194.52
2017-12-01T02:03:26.279Z,100195.48
2017-12-01T02:05:53.865Z,100197.17
2017-12-01T02:08:21.549Z,100202.12
2017-12-01T02:10:49.163Z,100197.61
2017-12-01T02:13:16.754Z,100205.91
2017-12-01T02:15:44.350Z,100209.59
2017-12-01T02:18:11.985Z,100218.77
2017-12-01T02:20:39.582Z,100218.75
2017-12-01T02:23:07.162Z,100223.07
2017-12-01T02:25:34.779Z,100224.39
2017-12-01T02:28:02.411Z,100222.56
2017-12-01T02:30:29.987Z,100230.16
2017-12-01T02:32:57.609Z,100229.14
2017-12-01T02:35:25.197Z,100232.88
2017-12-01T02:37:52.829Z,100232.59
2017-12-01T02:40:20.487Z,100230.70
2017-12-01T02:42:48.099Z,100228.33
2017-12-01T02:45:15.930Z,100234.07
2017-12-01T02:47:43.544Z,100231.48
2017-12-01T02:50:11.270Z,100232.53
2017-12-01T02:52:38.885Z,100242.22
2017-12-01T02:55:06.467Z,100247.35
2017-12-01T02:57:34.085Z,100241.47
2017-12-01T03:00:01.884Z,100248.04
2017-12-01T03:02:29.666Z,100247.14
2017-12-01T03:04:57.402Z,100248.47
2017-12-01T03:07:25.048Z,100257.80
2017-12-01T03:09:52.640Z,100258.00
2017-12-01T03:12:20.261Z,100260.47
2017-12-01T03:14:47.841Z,100260.73
2017-12-01T03:17:15.469Z,100261.59
2017-12-01T03:19:43.063Z,100267.72
2017-12-01T03:22:10.685Z,100275.25
2017-12-01T03:24:38.281Z,100267.52
2017-12-01T03:27:05.915Z,100275.12
2017-12-01T03:29:33.497Z,100271.61
2017-12-01T03:32:01.095Z,100280.48
2017-12-01T03:34:28.731Z,100279.06
2017-12-01T03:36:56.378Z,100277.95
2017-12-01T03:39:23.969Z,100286.91
2017-12-01T03:41:51.558Z,100286.70
2017-12-01T03:44:19.182Z,100295.32
2017-12-01T03:46:46.722Z,100303.15
2017-12-01T03:49:14.356Z,100311.39
2017-12-01T03:51:41.991Z,100316.80
2017-12-01T03:54:09.569Z,100317.75
2017-12-01T03:56:37.262Z,100323.62
2017-12-01T03:59:04.894Z,100325.81
2017-12-01T04:01:32.557Z,100329.90
2017-12-01T04:04:00.179Z,100333.94
2017-12-01T04:06:27.799Z,100335.94
2017-12-01T04:08:55.387Z,100337.98
2017-12-01T04:11:23.041Z,100343.66
2017-12-01T04:13:50.625Z,100337.62
2017-12-01T04:16:18.270Z,100342.52
2017-12-01T04:18:45.895Z,100350.05
2017-12-01T04:21:13.527Z,100349.03
2017-12-01T04:23:41.118Z,100354.86
2017-12-01T04:26:08.844Z,100361.32
2017-12-01T04:28:36.430Z,100364.04
2017-12-01T04:31:04.127Z,100365.44
2017-12-01T04:33:31.701Z,100375.16
2017-12-01T04:35:59.323Z,100369.09
2017-12-01T04:38:26.962Z,100376.44
2017-12-01T04:40:54.575Z,100382.10
2017-12-01T04:43:22.158Z,100388.38
2017-12-01T04:45:49.843Z,100391.48
2017-12-01T04:48:17.426Z,100397.68
2017-12-01T04:50:45.030Z,100401.27
2017-12-01T04:53:12.677Z,100401.23
2017-12-01T04:55:40.319Z,100403.77
2017-12-01T04:58:07.903Z,100406.86
2017-12-01T05:00:35.514Z,100414.95
2017-12-01T05:03:03.167Z,100425.56
2017-12-01T05:05:30.816Z,100426.78
2017-12-01T05:07:58.399Z,100428.17
2017-12-01T05:10:26.014Z,100429.20
2017-12-01T05:12:53.694Z,100436.23
2017-12-01T05:15:21.309Z,100434.45
2017-12-01T05:17:48.907Z,100431.69
2017-12-01T05:20:16.538Z,100443.45
2017-12-01T05:22:44.120Z,100445.08
2017-12-01T05:25:11.711Z,100443.00
2017-12-01T05:27:39.334Z,100447.31
2017-12-01T05:30:06.922Z,100453.02
2017-12-01T05:32:34.535Z,100455.44
2017-12-01T05:35:02.163Z,100454.80
2017-12-01T05:37:29.743Z,100457.33
2017-12-01T05:39:57.426Z,100467.20
2017-12-01T05:42:25.050Z,100467.20
2017-12-01T05:44:52.642Z,100474.62
2017-12-01T05:47:20.267Z,100479.39
2017-12-01T05:49:47.849Z,100480.83
2017-12-01T05:52:15.547Z,100480.59
2017-12-01T05:54:43.193Z,100482.56
2017-12-01T05:57:10.878Z,100491.64
2017-12-01T05:59:38.466Z,100496.59
2017-12-01T06:02:06.077Z,100500.83
2017-12-01T06:04:33.651Z,100507.27
2017-12-01T06:07:01.314Z,100509.08
2017-12-01T06:09:28.910Z,100516.64
2017-12-01T06:11:56.560Z,100521.00
2017-12-01T06:14:24.142Z,100529.28
2017-12-01T06:16:51.752Z,100525.53
2017-12-01T06:19:19.343Z,100522.47
2017-12-01T06:21:46.971Z,100533.88
2017-12-01T06:24:14.573Z,100538.08
2017-12-01T06:26:42.207Z,100540.92
2017-12-01T06:29:09.791Z,100544.59
2017-12-01T06:31:37.440Z,100546.67
2017-12-01T06:34:05.022Z,100555.27
2017-12-01T06:36:32.653Z,100562.16
2017-12-01T06:39:00.238Z,100561.55
2017-12-01T06:41:27.955Z,100565.59
2017-12-01T06:43:55.542Z,100567.30
2017-12-01T06:46:23.151Z,100569.84
2017-12-01T06:48:50.738Z,100573.27
2017-12-01T06:51:18.354Z,100584.38
2017-12-01T06:53:45.939Z,100585.81
2017-12-01T06:56:13.612Z,100583.16
2017-12-01T06:58:41.216Z,100592.14
2017-12-01T07:01:08.870Z,100599.91
2017-12-01T07:03:36.574Z,100604.62
2017-12-01T07:06:04.236Z,100604.25
2017-12-01T07:08:31.899Z,100606.95
2017-12-01T07:10:59.486Z,100611.19
2017-12-01T07:13:27.145Z,100615.44
2017-12-01T07:15:54.738Z,100618.58
2017-12-01T07:18:22.390Z,100624.14
2017-12-01T07:20:50.019Z,100627.45
2017-12-01T07:23:17.658Z,100637.36
2017-12-01T07:25:45.304Z,100643.21
2017-12-01T07:28:12.928Z,100654.53
2017-12-01T07:30:40.519Z,100651.42
2017-12-01T07:33:08.162Z,100661.81
2017-12-01T07:35:35.765Z,100660.77
2017-12-01T07:38:03.423Z,100666.20
2017-12-01T07:40:31.028Z,100671.36
2017-12-01T07:42:58.653Z,100672.52
2017-12-01T07:45:42.063Z,100672.88
2017-12-01T07:48:09.798Z,100678.09
2017-12-01T07:50:37.386Z,100683.33
2017-12-01T07:53:05.135Z,100685.64
2017-12-01T07:55:32.741Z,100685.55
2017-12-01T07:58:00.382Z,100685.32
2017-12-01T08:00:27.974Z,100691.50
2017-12-01T08:02:55.611Z,100694.45
2017-12-01T08:05:23.251Z,100694.95
2017-12-01T08:07:50.866Z,100696.98
2017-12-01T08:10:18.468Z,100702.41
2017-12-01T08:12:46.089Z,100713.27
2017-12-01T08:15:13.682Z,100712.22
2017-12-01T08:17:41.294Z,100717.98
2017-12-01T08:20:08.915Z,100729.80
2017-12-01T08:22:48.154Z,100729.57
2017-12-01T08:25:39.967Z,100728.44
2017-12-01T08:28:07.578Z,100745.72
2017-12-01T08:30:35.183Z,100751.63
2017-12-01T08:33:02.806Z,100755.18
2017-12-01T08:35:30.511Z,100760.78
2017-12-01T08:37:58.155Z,100764.62
2017-12-01T08:40:25.728Z,100768.41
2017-12-01T08:42:53.366Z,100775.36
2017-12-01T08:45:21.002Z,100773.59
2017-12-01T08:47:48.626Z,100771.88
2017-12-01T08:50:16.226Z,100776.81
2017-12-01T08:52:43.850Z,100778.08
2017-12-01T08:55:11.451Z,100778.66
2017-12-01T08:57:39.128Z,100781.80
2017-12-01T09:00:06.702Z,100791.27
2017-12-01T09:02:34.325Z,100787.48
2017-12-01T09:05:01.950Z,100784.80
2017-12-01T09:07:29.577Z,100786.16
2017-12-01T09:09:57.178Z,100794.20
2017-12-01T09:12:24.887Z,100803.52
2017-12-01T09:14:52.467Z,100807.61
2017-12-01T09:17:20.095Z,100815.31
2017-12-01T09:19:47.794Z,100814.98
2017-12-01T09:22:15.419Z,100827.94
2017-12-01T09:24:43.030Z,100824.30
2017-12-01T09:27:10.654Z,100822.73
2017-12-01T09:29:38.265Z,100829.64
2017-12-01T09:32:05.891Z,100837.56
2017-12-01T09:34:33.558Z,100838.80
2017-12-01T09:37:01.173Z,100838.61
2017-12-01T09:39:28.790Z,100848.13
2017-12-01T09:41:56.400Z,100849.04
2017-12-01T09:44:24.011Z,100860.95
2017-12-01T09:46:51.634Z,100859.53
2017-12-01T09:49:19.229Z,100865.58
2017-12-01T09:51:46.883Z,100862.56
2017-12-01T09:54:14.480Z,100862.96
2017-12-01T09:56:42.108Z,100869.19
2017-12-01T09:59:09.746Z,100875.07
2017-12-01T10:01:37.378Z,100876.05
2017-12-01T10:04:04.977Z,100884.96
2017-12-01T10:06:32.617Z,100877.46
2017-12-01T10:09:00.206Z,100882.34
2017-12-01T10:11:27.817Z,100889.92
2017-12-01T10:13:55.438Z,100883.22
2017-12-01T10:16:23.103Z,100887.89
2017-12-01T10:18:50.748Z,100893.88
2017-12-01T10:21:18.422Z,100895.84
2017-12-01T10:23:46.009Z,100898.17
2017-12-01T10:26:13.639Z,100901.79
2017-12-01T10:28:41.217Z,100901.17
2017-12-01T10:31:08.906Z,100907.29
2017-12-01T10:33:36.501Z,100908.73
2017-12-01T10:36:04.230Z,100909.02
2017-12-01T10:38:31.844Z,100920.20
2017-12-01T10:40:59.466Z,100922.30
2017-12-01T10:43:27.145Z,100916.45
2017-12-01T10:45:54.806Z,100919.30
2017-12-01T10:48:22.422Z,100927.27
2017-12-01T10:50:50.123Z,100931.81
2017-12-01T10:53:17.740Z,100933.14
2017-12-01T10:55:45.385Z,100928.84
2017-12-01T10:58:13.007Z,100934.95
2017-12-01T11:00:40.634Z,100938.42
2017-12-01T11:03:08.227Z,100936.64
2017-12-01T11:05:35.847Z,100935.00
2017-12-01T11:08:03.443Z,100939.10
2017-12-01T11:10:31.078Z,100940.16
2017-12-01T11:12:58.714Z,100942.83
2017-12-01T11:15:26.342Z,100946.16
2017-12-01T11:17:54.146Z,100951.44
2017-12-01T11:20:21.762Z,100951.73
2017-12-01T11:22:49.515Z,100952.88
2017-12-01T11:25:17.138Z,100952.34
2017-12-01T11:27:44.739Z,100955.05
2017-12-01T11:30:12.375Z,100957.09
2017-12-01T11:32:39.988Z,100955.80
2017-12-01T11:35:07.618Z,100960.88
2017-12-01T11:37:35.234Z,100963.84
2017-12-01T11:40:02.879Z,100964.29
2017-12-01T11:42:30.567Z,100968.45
2017-12-01T11:44:58.202Z,100963.31
2017-12-01T11:47:25.784Z,100966.17
2017-12-01T11:49:53.425Z,100968.50
2017-12-01T11:52:21.023Z,100971.73
2017-12-01T11:54:48.709Z,100967.77
2017-12-01T11:57:16.315Z,100977.44
2017-12-01T11:59:43.922Z,100983.75
2017-12-01T12:02:11.532Z,100983.68
2017-12-01T12:04:39.176Z,100990.19
2017-12-01T12:07:06.760Z,100996.03
2017-12-01T12:09:34.388Z,100994.44
2017-12-01T12:12:02.046Z,101003.36
2017-12-01T12:14:29.691Z,101002.45
2017-12-01T12:16:57.346Z,101008.38
2017-12-01T12:19:24.971Z,101010.71
2017-12-01T12:21:52.620Z,101009.28
2017-12-01T12:24:20.231Z,101012.36
2017-12-01T12:26:47.830Z,101014.08
2017-12-01T12:29:15.442Z,101021.87
2017-12-01T12:31:43.055Z,101019.06
2017-12-01T12:34:10.698Z,101022.12
2017-12-01T12:36:38.290Z,101016.59
2017-12-01T12:39:05.931Z,101022.90
2017-12-01T12:41:33.514Z,101026.44
2017-12-01T12:44:01.182Z,101031.64
2017-12-01T12:46:28.762Z,101031.38
2017-12-01T12:48:56.370Z,101032.73
2017-12-01T12:51:24.040Z,101036.09
2017-12-01T12:53:51.667Z,101035.39
2017-12-01T12:56:19.262Z,101031.00
2017-12-01T12:58:46.890Z,101032.09
2017-12-01T13:01:14.463Z,101032.20
2017-12-01T13:03:42.091Z,101033.46
2017-12-01T13:06:09.695Z,101037.64
2017-12-01T13:08:37.370Z,101035.22
2017-12-01T13:11:04.958Z,101036.66
2017-12-01T13:13:32.598Z,101034.02
2017-12-01T13:16:00.188Z,101037.39
2017-12-01T13:18:27.836Z,101037.47
2017-12-01T13:20:55.417Z,101040.67
2017-12-01T13:23:23.037Z,101041.14
2017-12-01T13:25:50.689Z,101042.73
2017-12-01T13:28:18.308Z,101037.08
2017-12-01T13:30:45.897Z,101045.77
2017-12-01T13:33:13.506Z,101045.81
2017-12-01T13:35:41.101Z,101053.06
2017-12-01T13:38:08.755Z,101058.38
2017-12-01T13:40:36.430Z,101055.88
2017-12-01T13:43:04.038Z,101060.31
2017-12-01T13:45:31.681Z,101062.94
2017-12-01T13:47:59.310Z,101065.86
2017-12-01T13:50:26.895Z,101060.89
2017-12-01T13:52:54.520Z,101062.78
2017-12-01T13:55:22.109Z,101069.70
2017-12-01T13:57:49.795Z,101075.62
2017-12-01T14:00:17.382Z,101076.84
2017-12-01T14:02:45.009Z,101076.47
2017-12-01T14:05:12.612Z,101079.16
2017-12-01T14:07:40.347Z,101078.63
2017-12-01T14:10:07.972Z,101082.89
2017-12-01T14:12:35.584Z,101085.98
2017-12-01T14:15:03.245Z,101091.96
2017-12-01T14:17:30.873Z,101088.89
2017-12-01T14:19:58.472Z,101097.38
2017-12-01T14:22:26.098Z,101099.13
2017-12-01T14:24:53.690Z,101098.80
2017-12-01T14:27:21.322Z,101113.32
2017-12-01T14:29:50.438Z,101112.84
2017-12-01T14:32:18.087Z,101121.01
2017-12-01T14:34:45.728Z,101124.86
2017-12-01T14:37:13.332Z,101130.17
2017-12-01T14:39:40.957Z,101137.91
2017-12-01T14:42:08.555Z,101139.05
2017-12-01T14:44:36.190Z,101139.91
2017-12-01T14:47:03.816Z,101149.45
2017-12-01T14:49:31.451Z,101155.48
2017-12-01T14:51:59.072Z,101153.59
2017-12-01T14:54:26.699Z,101165.13
2017-12-01T14:56:54.290Z,101158.88
2017-12-01T14:59:21.951Z,101161.56
2017-12-01T15:01:49.570Z,101167.36
2017-12-01T15:04:17.165Z,101170.13
2017-12-01T15:06:44.830Z,101176.74
2017-12-01T15:09:12.415Z,101182.77
2017-12-01T15:11:40.049Z,101182.47
2017-12-01T15:14:07.667Z,101182.00
2017-12-01T15:16:35.314Z,101183.84
2017-12-01T15:19:02.976Z,101187.81
2017-12-01T15:21:30.620Z,101192.84
2017-12-01T15:23:58.251Z,101197.70
2017-12-01T15:26:25.882Z,101198.19
2017-12-01T15:28:53.494Z,101212.71
2017-12-01T15:31:21.140Z,101206.67
2017-12-01T15:33:48.735Z,101214.56
2017-12-01T15:36:16.366Z,101208.97
2017-12-01T15:38:43.966Z,101214.27
2017-12-01T15:41:11.595Z,101216.08
2017-12-01T15:43:39.206Z,101223.31
2017-12-01T15:46:06.917Z,101228.41
2017-12-01T15:48:34.513Z,101230.20
2017-12-01T15:51:02.145Z,101226.66
2017-12-01T15:53:29.734Z,101225.19
2017-12-01T15:55:57.446Z,101225.17
2017-12-01T15:58:25.108Z,101231.52
2017-12-01T16:00:52.715Z,101231.50
2017-12-01T16:03:20.334Z,101229.13
2017-12-01T16:05:47.914Z,101242.69
2017-12-01T16:08:15.548Z,101238.30
2017-12-01T16:10:43.196Z,101248.53
2017-12-01T16:13:10.836Z,101246.19
2017-12-01T16:15:38.425Z,101248.53
2017-12-01T16:18:06.051Z,101252.22
2017-12-01T16:20:33.642Z,101256.63
2017-12-01T16:23:01.419Z,101255.97
2017-12-01T16:25:29.015Z,101263.25
2017-12-01T16:27:56.638Z,101267.27
2017-12-01T16:30:24.222Z,101276.06
2017-12-01T16:32:51.846Z,101274.36
2017-12-01T16:35:19.496Z,101277.61
2017-12-01T16:37:47.115Z,101276.39
2017-12-01T16:40:14.731Z,101280.45
2017-12-01T16:42:42.364Z,101284.31
2017-12-01T16:45:09.939Z,101288.48
2017-12-01T16:47:37.564Z,101292.26
2017-12-01T16:50:05.268Z,101292.47
2017-12-01T16:52:32.946Z,101292.95
2017-12-01T16:55:00.554Z,101299.30
2017-12-01T16:57:28.214Z,101299.47
2017-12-01T16:59:55.830Z,101303.56
2017-12-01T17:02:23.446Z,101312.47
2017-12-01T17:04:51.045Z,101313.67
2017-12-01T17:07:18.736Z,101310.80
2017-12-01T17:09:46.335Z,101317.75
2017-12-01T17:12:13.954Z,101322.73
2017-12-01T17:14:41.555Z,101326.09
2017-12-01T17:17:09.143Z,101326.62
2017-12-01T17:19:36.776Z,101333.86
2017-12-01T17:22:04.436Z,101330.51
2017-12-01T17:24:32.051Z,101336.73
2017-12-01T17:26:59.661Z,101339.80
2017-12-01T17:29:27.292Z,101336.41
2017-12-01T17:31:54.899Z,101346.85
2017-12-01T17:34:22.507Z,101354.70
2017-12-01T17:36:50.099Z,101355.19
2017-12-01T17:39:17.715Z,101362.93
2017-12-01T17:41:45.334Z,101369.46
2017-12-01T17:44:12.997Z,101368.03
2017-12-01T17:46:40.596Z,101378.86
2017-12-01T17:49:08.218Z,101379.91
2017-12-01T17:51:35.839Z,101385.39
2017-12-01T17:54:03.488Z,101381.12
2017-12-01T17:56:31.136Z,101386.34
2017-12-01T17:58:58.735Z,101395.53
2017-12-01T18:01:26.343Z,101393.78
2017-12-01T18:03:53.970Z,101387.45
2017-12-01T18:06:21.569Z,101391.12
2017-12-01T18:08:49.201Z,101395.95
2017-12-01T18:11:16.803Z,101394.20
2017-12-01T18:13:44.418Z,101393.36
2017-12-01T18:16:12.026Z,101396.64
2017-12-01T18:18:39.634Z,101399.61
2017-12-01T18:21:07.232Z,101405.31
2017-12-01T18:23:34.892Z,101410.63
2017-12-01T18:26:02.479Z,101411.77
2017-12-01T18:28:30.132Z,101417.19
2017-12-01T18:30:57.714Z,101422.88
2017-12-01T18:33:25.340Z,101426.65
2017-12-01T18:35:52.963Z,101433.00
2017-12-01T18:38:20.602Z,101430.36
2017-12-01T18:40:48.201Z,101429.31
2017-12-01T18:43:15.840Z,101430.86
2017-12-01T18:45:43.431Z,101436.91
2017-12-01T18:48:11.088Z,101444.66
2017-12-01T18:50:38.711Z,101444.56
2017-12-01T18:53:06.356Z,101449.87
2017-12-01T18:55:33.959Z,101447.11
2017-12-01T18:58:01.585Z,101449.66
2017-12-01T19:00:29.203Z,101450.61
2017-12-01T19:02:56.827Z,101460.00
2017-12-01T19:05:24.424Z,101459.28
2017-12-01T19:07:52.058Z,101466.63
2017-12-01T19:10:19.666Z,101461.54
2017-12-01T19:12:47.288Z,101466.84
2017-12-01T19:15:14.868Z,101470.83
2017-12-01T19:17:42.519Z,101472.75
2017-12-01T19:20:10.123Z,101478.05
2017-12-01T19:22:37.721Z,101483.47
2017-12-01T19:25:05.332Z,101482.14
2017-12-01T19:27:33.224Z,101483.47
2017-12-01T19:30:00.808Z,101489.09
2017-12-01T19:32:28.403Z,101492.27
2017-12-01T19:34:56.073Z,101491.42
2017-12-01T19:37:23.691Z,101491.11
2017-12-01T19:39:51.264Z,101501.63
2017-12-01T19:42:18.899Z,101502.77
2017-12-01T19:44:46.504Z,101501.63
2017-12-01T19:47:14.135Z,101501.83
2017-12-01T19:49:41.749Z,101503.16
2017-12-01T19:52:09.464Z,101507.34
2017-12-01T19:54:37.115Z,101510.09
2017-12-01T19:57:04.846Z,101513.59
2017-12-01T19:59:32.465Z,101520.50
2017-12-01T20:02:00.106Z,101523.05
2017-12-01T20:04:27.738Z,101522.77
2017-12-01T20:06:55.336Z,101521.23
2017-12-01T20:09:22.978Z,101521.93
2017-12-01T20:11:50.599Z,101527.45
2017-12-01T20:14:18.238Z,101528.87
2017-12-01T20:16:45.834Z,101528.17
2017-12-01T20:19:13.595Z,101529.39
2017-12-01T20:21:41.182Z,101528.05
2017-12-01T20:24:08.871Z,101534.38
2017-12-01T20:26:36.474Z,101543.44
2017-12-01T20:29:04.134Z,101542.64
2017-12-01T20:31:31.714Z,101539.14
2017-12-01T20:33:59.369Z,101541.81
2017-12-01T20:36:26.963Z,101542.39
2017-12-01T20:38:54.658Z,101545.14
2017-12-01T20:41:22.275Z,101556.06
2017-12-01T20:43:49.910Z,101557.50
2017-12-01T20:46:17.508Z,101562.20
2017-12-01T20:48:45.112Z,101569.24
2017-12-01T20:51:12.707Z,101566.59
2017-12-01T20:53:40.399Z,101571.57
2017-12-01T20:56:08.045Z,101577.97
2017-12-01T20:58:35.686Z,101577.48
2017-12-01T21:01:03.299Z,101577.97
2017-12-01T21:03:30.929Z,101576.29
2017-12-01T21:05:58.531Z,101582.38
2017-12-01T21:08:26.188Z,101583.19
2017-12-01T21:10:53.835Z,101587.03
2017-12-01T21:13:21.542Z,101584.17
2017-12-01T21:15:49.150Z,101586.59
2017-12-01T21:18:16.838Z,101594.58
2017-12-01T21:20:44.421Z,101594.05
2017-12-01T21:23:12.040Z,101586.83
2017-12-01T21:25:39.630Z,101594.80
2017-12-01T21:28:07.278Z,101595.63
2017-12-01T21:30:34.911Z,101596.73
2017-12-01T21:33:02.622Z,101599.98
2017-12-01T21:35:30.238Z,101600.09
2017-12-01T21:37:57.868Z,101605.71
2017-12-01T21:40:25.520Z,101610.11
2017-12-01T21:42:53.260Z,101613.66
2017-12-01T21:45:20.888Z,101613.40
2017-12-01T21:47:48.584Z,101610.79
2017-12-01T21:50:16.206Z,101618.11
2017-12-01T21:52:43.813Z,101622.08
2017-12-01T21:55:11.500Z,101634.80
2017-12-01T21:57:39.106Z,101635.72
2017-12-01T22:00:06.805Z,101637.80
2017-12-01T22:02:34.421Z,101639.44
2017-12-01T22:05:02.092Z,101642.65
2017-12-01T22:07:29.756Z,101645.94
2017-12-01T22:09:57.414Z,101650.49
2017-12-01T22:12:25.191Z,101652.14
2017-12-01T22:14:52.883Z,101652.45
2017-12-01T22:17:20.482Z,101656.45
2017-12-01T22:19:48.083Z,101665.80
2017-12-01T22:22:15.761Z,101660.36
2017-12-01T22:24:43.432Z,101659.34
2017-12-01T22:27:11.143Z,101654.84
2017-12-01T22:29:38.740Z,101661.11
2017-12-01T22:32:06.464Z,101657.84
2017-12-01T22:34:34.070Z,101658.75
2017-12-01T22:37:01.762Z,101659.81
2017-12-01T22:39:29.396Z,101667.61
2017-12-01T22:41:57.037Z,101667.67
2017-12-01T22:44:24.625Z,101663.15
2017-12-01T22:46:52.254Z,101667.54
2017-12-01T22:49:19.874Z,101668.67
2017-12-01T22:51:47.514Z,101671.05
2017-12-01T22:54:15.129Z,101676.02
2017-12-01T22:56:42.771Z,101668.47
2017-12-01T22:59:10.441Z,101670.27
2017-12-01T23:01:38.083Z,101666.80
2017-12-01T23:04:05.744Z,101669.08
2017-12-01T23:06:33.409Z,101674.28
2017-12-01T23:09:01.878Z,101676.20
2017-12-01T23:11:29.480Z,101679.97
2017-12-01T23:13:57.157Z,101681.64
2017-12-01T23:16:24.788Z,101679.10
2017-12-01T23:18:52.432Z,101680.65
2017-12-01T23:21:20.048Z,101674.17
2017-12-01T23:23:47.730Z,101674.20
2017-12-01T23:26:15.360Z,101677.14
2017-12-01T23:28:43.020Z,101677.69
2017-12-01T23:31:10.611Z,101672.83
2017-12-01T23:33:38.358Z,101677.13
2017-12-01T23:36:05.978Z,101676.48
2017-12-01T23:38:33.593Z,101669.12
2017-12-01T23:41:01.238Z,101671.09
2017-12-01T23:43:28.832Z,101668.61
2017-12-01T23:45:56.511Z,101678.13
2017-12-01T23:48:24.130Z,101678.84
2017-12-01T23:50:51.884Z,101677.74
2017-12-01T23:53:19.504Z,101685.00
2017-12-01T23:55:47.131Z,101687.39
2017-12-01T23:58:14.739Z,101685.03
